^^
Saratoga-Weather Station Historical Data
Daily Summary for April 22, 2020 Units:  English    Metric   Both
Daily Weekly Monthly Yearly Custom
  High: Low: Average:
Temperature: 73.6 °F 48 °F 61.3 °F
Dew Point: 40.3 °F 34 °F 36.7 °F
Humidity: 62% 26% 41%
Wind Speed: 10.1mph 0mph 2.4mph
Wind Gust: 15mph - -
Wind- - ESE
Pressure: 30 in 29.9 in -
Precipitation: 0 in    
Historical Graphs
 
 
Tabular Data for April 22, 2020
Time Temperature Dew Point Pressure Wind Wind Speed Wind Gust Humidity Rainfall Rate (Hourly) solar
00:01 59.5 °F 35.2 °F 29.9 in East 2 mph 4 mph 40% 0 in 0 W/m2
00:06 59.5 °F 36.5 °F 29.9 in Calm   7 mph 42% 0 in 0 W/m2
00:11 59.2 °F 35.4 °F 29.9 in NNE 2.9 mph 3 mph 41% 0 in 0 W/m2
00:16 59.2 °F 35.4 °F 29.9 in ESE 2 mph 7 mph 41% 0 in 0 W/m2
00:21 59.2 °F 35.4 °F 29.9 in SE 2 mph 6 mph 41% 0 in 0 W/m2
00:26 59 °F 35.4 °F 29.9 in East 0.9 mph 4 mph 41% 0 in 0 W/m2
00:31 59.2 °F 35.4 °F 29.9 in ENE 0.9 mph 4 mph 41% 0 in 0 W/m2
00:36 59.2 °F 35.4 °F 29.9 in ESE 2.9 mph 6 mph 41% 0 in 0 W/m2
00:41 58.8 °F 35.2 °F 29.9 in NE 2.9 mph 6 mph 41% 0 in 0 W/m2
00:47 58.8 °F 35.2 °F 29.9 in NE 4.9 mph 6 mph 41% 0 in 0 W/m2
00:52 58.6 °F 35.1 °F 29.9 in East 2.9 mph 4 mph 41% 0 in 0 W/m2
00:57 58.6 °F 35.6 °F 29.9 in North 2 mph 4 mph 42% 0 in 0 W/m2
01:02 58.5 °F 35.4 °F 29.9 in East 2.9 mph 4 mph 42% 0 in 0 W/m2
01:07 58.3 °F 35.2 °F 29.9 in Calm   4 mph 42% 0 in 0 W/m2
01:12 58.1 °F 35.8 °F 29.9 in ESE 2.9 mph 3 mph 43% 0 in 0 W/m2
01:17 57.7 °F 35.4 °F 29.9 in SE 2 mph 8 mph 43% 0 in 0 W/m2
01:22 57.7 °F 35.4 °F 29.9 in Calm   4 mph 43% 0 in 0 W/m2
01:27 57.4 °F 36.7 °F 29.9 in East 0.9 mph 6 mph 46% 0 in 0 W/m2
01:32 57 °F 35.2 °F 29.9 in ENE 0.9 mph 4 mph 44% 0 in 0 W/m2
01:37 57 °F 35.2 °F 29.9 in NE 0.9 mph 5 mph 44% 0 in 0 W/m2
01:42 57 °F 36.5 °F 29.9 in ESE 0.9 mph 2 mph 46% 0 in 0 W/m2
01:47 56.8 °F 35.2 °F 29.9 in East 2.9 mph 4 mph 44% 0 in 0 W/m2
01:52 56.7 °F 35.1 °F 29.9 in ENE 2.9 mph 3 mph 44% 0 in 0 W/m2
01:57 56.7 °F 35.1 °F 29.9 in Calm   6 mph 44% 0 in 0 W/m2
02:02 56.8 °F 35.2 °F 29.9 in SE 4.9 mph 5 mph 44% 0 in 0 W/m2
02:07 56.8 °F 35.2 °F 29.9 in East 2.9 mph 3 mph 44% 0 in 0 W/m2
02:12 56.8 °F 35.2 °F 29.9 in East 0.9 mph 4 mph 44% 0 in 0 W/m2
02:17 56.7 °F 35.1 °F 29.9 in East 2.9 mph 4 mph 44% 0 in 0 W/m2
02:22 56.5 °F 35.4 °F 29.9 in Calm   4 mph 45% 0 in 0 W/m2
02:27 56.5 °F 35.4 °F 29.9 in East 2 mph 4 mph 45% 0 in 0 W/m2
02:32 56.5 °F 34.9 °F 29.9 in ESE 0.9 mph 4 mph 44% 0 in 0 W/m2
02:37 56.5 °F 35.4 °F 29.9 in ESE 2.9 mph 3 mph 45% 0 in 0 W/m2
02:42 56.1 °F 35.1 °F 29.9 in East 4 mph 4 mph 45% 0 in 0 W/m2
02:47 55.9 °F 35.4 °F 29.9 in ENE 0.9 mph 1 mph 46% 0 in 0 W/m2
02:52 55.6 °F 35.1 °F 29.9 in Calm   1 mph 46% 0 in 0 W/m2
02:57 55.2 °F 35.4 °F 29.9 in Calm   1 mph 47% 0 in 0 W/m2
03:02 54.9 °F 34.5 °F 29.9 in SE 2.9 mph 3 mph 46% 0 in 0 W/m2
03:07 55 °F 34.7 °F 29.9 in ESE 0.9 mph 2 mph 46% 0 in 0 W/m2
03:12 55.2 °F 34.9 °F 29.9 in NE 0.9 mph 3 mph 46% 0 in 0 W/m2
03:18 55.2 °F 34.9 °F 29.9 in SSE 0.9 mph 2 mph 46% 0 in 0 W/m2
03:23 55.2 °F 34.9 °F 29.9 in North 2.9 mph 3 mph 46% 0 in 0 W/m2
03:28 55.2 °F 34.2 °F 29.9 in ENE 0.9 mph 2 mph 45% 0 in 0 W/m2
03:33 55 °F 34.2 °F 29.9 in NE 2 mph 3 mph 45% 0 in 0 W/m2
03:38 55 °F 34.7 °F 29.9 in NNE 2 mph 5 mph 46% 0 in 0 W/m2
03:43 55 °F 34.7 °F 29.9 in Calm   2 mph 46% 0 in 0 W/m2
03:48 54.9 °F 35.1 °F 29.9 in ENE 0.9 mph 5 mph 47% 0 in 0 W/m2
03:53 54.7 °F 34.9 °F 29.9 in NNW 0.9 mph 2 mph 47% 0 in 0 W/m2
03:58 54.3 °F 34.5 °F 29.9 in West 0.9 mph 1 mph 47% 0 in 0 W/m2
04:03 54.1 °F 34.3 °F 29.9 in West 0.9 mph 5 mph 47% 0 in 0 W/m2
04:08 54.1 °F 34.3 °F 29.9 in West 2 mph 3 mph 47% 0 in 0 W/m2
04:13 54 °F 34.2 °F 29.9 in NE 0.9 mph 4 mph 47% 0 in 0 W/m2
04:18 53.8 °F 34.5 °F 29.9 in ENE 2 mph 5 mph 48% 0 in 0 W/m2
04:24 53.8 °F 34.5 °F 29.9 in WNW 0.9 mph 1 mph 48% 0 in 0 W/m2
04:29 53.4 °F 34.7 °F 29.9 in SE 2 mph 5 mph 49% 0 in 0 W/m2
04:34 53.2 °F 34.5 °F 29.9 in NW 0.9 mph 3 mph 49% 0 in 0 W/m2
04:39 53.2 °F 34 °F 29.9 in Calm   3 mph 48% 0 in 0 W/m2
04:44 53.2 °F 34.5 °F 29.9 in NNW 0.9 mph 1 mph 49% 0 in 0 W/m2
04:49 53.1 °F 34.9 °F 29.9 in WNW 0.9 mph 1 mph 50% 0 in 0 W/m2
04:54 53.1 °F 34.9 °F 29.9 in Calm   2 mph 50% 0 in 0 W/m2
04:59 52.9 °F 34.7 °F 29.9 in Calm   2 mph 50% 0 in 0 W/m2
05:04 52.7 °F 34.5 °F 29.9 in WNW 2 mph 2 mph 50% 0 in 0 W/m2
05:09 52.5 °F 34.3 °F 29.9 in NNE 0.9 mph 1 mph 50% 0 in 0 W/m2
05:14 52.5 °F 34.3 °F 29.9 in Calm   4 mph 50% 0 in 0 W/m2
05:19 52.3 °F 35.2 °F 29.9 in NNW 2.9 mph 6 mph 52% 0 in 0 W/m2
05:24 52.2 °F 35.1 °F 29.9 in Calm   4 mph 52% 0 in 0 W/m2
05:29 52 °F 34.3 °F 29.9 in Calm   3 mph 51% 0 in 0 W/m2
05:34 52 °F 34.3 °F 29.9 in SSE 0.9 mph 5 mph 51% 0 in 0 W/m2
05:39 51.6 °F 34.5 °F 29.9 in SE 2.9 mph 3 mph 52% 0 in 0 W/m2
05:44 51.6 °F 35.1 °F 29.9 in Calm   4 mph 53% 0 in 0 W/m2
05:49 51.4 °F 34.9 °F 29.9 in East 2 mph 2 mph 53% 0 in 0 W/m2
05:54 51.3 °F 34.2 °F 29.9 in Calm   3 mph 52% 0 in 0 W/m2
05:59 51.1 °F 34.5 °F 29.9 in Calm   2 mph 53% 0 in 0 W/m2
06:04 50.7 °F 34.7 °F 29.9 in WNW 2 mph 4 mph 54% 0 in 0 W/m2
06:10 50.5 °F 35.1 °F 29.9 in SSW 0.9 mph 2 mph 55% 0 in 0 W/m2
06:15 50.2 °F 34.7 °F 29.9 in Calm   4 mph 55% 0 in 0 W/m2
06:20 49.8 °F 35.2 °F 29.9 in Calm   1 mph 57% 0 in 0 W/m2
06:25 49.6 °F 35.4 °F 29.9 in SE 0.9 mph 1 mph 58% 0 in 0 W/m2
06:30 49.3 °F 35.1 °F 29.9 in East 2 mph 2 mph 58% 0 in 5 W/m2
06:35 49.1 °F 35.4 °F 29.9 in NW 2 mph 2 mph 59% 0 in 7 W/m2
06:40 48.9 °F 35.6 °F 29.9 in Calm     60% 0 in 9 W/m2
06:45 48.6 °F 35.8 °F 29.9 in WSW 2 mph 2 mph 61% 0 in 12 W/m2
06:50 48.4 °F 35.6 °F 29.9 in Calm   2 mph 61% 0 in 14 W/m2
06:55 48 °F 35.2 °F 29.9 in Calm   1 mph 61% 0 in 16 W/m2
07:00 48 °F 35.6 °F 29.9 in West 2 mph 3 mph 62% 0 in 19 W/m2
07:05 48.2 °F 35.4 °F 29.9 in NNW 2.9 mph 4 mph 61% 0 in 21 W/m2
07:10 48.6 °F 35.8 °F 29.9 in WNW 2.9 mph 4 mph 61% 0 in 21 W/m2
07:15 48.7 °F 36 °F 29.9 in WNW 2 mph 3 mph 61% 0 in 25 W/m2
07:20 48.7 °F 35.4 °F 29.9 in West 0.9 mph 4 mph 60% 0 in 25 W/m2
07:25 48.7 °F 36 °F 30 in Calm   1 mph 61% 0 in 26 W/m2
07:30 48.7 °F 35.4 °F 30 in Calm   4 mph 60% 0 in 28 W/m2
07:35 48.9 °F 35.6 °F 30 in WNW 0.9 mph 2 mph 60% 0 in 30 W/m2
07:40 49.1 °F 36.3 °F 30 in Calm   2 mph 61% 0 in 35 W/m2
07:45 49.3 °F 36 °F 30 in Calm   1 mph 60% 0 in 35 W/m2
07:50 49.5 °F 36.5 °F 30 in Calm   1 mph 61% 0 in 35 W/m2
07:55 49.6 °F 36.3 °F 30 in ENE 2.9 mph 4 mph 60% 0 in 165 W/m2
08:00 50.2 °F 36.3 °F 30 in East 2 mph 2 mph 59% 0 in 190 W/m2
08:05 50.5 °F 36.3 °F 30 in NE 0.9 mph 3 mph 58% 0 in 202 W/m2
08:10 51.3 °F 36.5 °F 30 in SE 0.9 mph 6 mph 57% 0 in 218 W/m2
08:15 52 °F 36.9 °F 30 in ENE 0.9 mph 3 mph 56% 0 in 230 W/m2
08:20 52.3 °F 36.7 °F 30 in Calm   5 mph 55% 0 in 243 W/m2
08:25 52.7 °F 36.5 °F 30 in NW 0.9 mph 6 mph 54% 0 in 257 W/m2
08:30 53.1 °F 36.9 °F 30 in East 0.9 mph 2 mph 54% 0 in 271 W/m2
08:35 53.6 °F 36.9 °F 30 in NE 4 mph 7 mph 53% 0 in 283 W/m2
08:40 53.8 °F 36.5 °F 30 in SE 2.9 mph 4 mph 52% 0 in 299 W/m2
08:45 54 °F 37.2 °F 30 in East 0.9 mph 3 mph 53% 0 in 311 W/m2
08:50 54.1 °F 36.9 °F 30 in WNW 0.9 mph 2 mph 52% 0 in 323 W/m2
08:55 54.3 °F 37 °F 30 in NE 4.9 mph 5 mph 52% 0 in 336 W/m2
09:00 54.7 °F 36.9 °F 30 in ENE 2 mph 4 mph 51% 0 in 352 W/m2
09:05 55 °F 37.2 °F 30 in ESE 2.9 mph 3 mph 51% 0 in 364 W/m2
09:10 55.6 °F 37.2 °F 30 in NE 2 mph 4 mph 50% 0 in 376 W/m2
09:15 55.9 °F 37 °F 30 in ENE 2.9 mph 4 mph 49% 0 in 392 W/m2
09:20 56.5 °F 37 °F 30 in North 0.9 mph 7 mph 48% 0 in 401 W/m2
09:25 57 °F 37.6 °F 30 in ESE 4 mph 5 mph 48% 0 in 415 W/m2
09:30 57.4 °F 36.7 °F 30 in NE 2.9 mph 9 mph 46% 0 in 429 W/m2
09:35 57.7 °F 36.5 °F 30 in NE 2 mph 9 mph 45% 0 in 439 W/m2
09:40 57.9 °F 36.1 °F 30 in ESE 2 mph 9 mph 44% 0 in 454 W/m2
09:45 58.6 °F 37.4 °F 30 in ESE 2.9 mph 6 mph 45% 0 in 466 W/m2
09:50 59.2 °F 37.2 °F 30 in East 0.9 mph 9 mph 44% 0 in 410 W/m2
09:55 59.7 °F 37.2 °F 30 in South 4 mph 5 mph 43% 0 in 53 W/m2
10:00 59.9 °F 37.4 °F 30 in ENE 2.9 mph 3 mph 43% 0 in 499 W/m2
10:05 60.4 °F 37.2 °F 30 in SE 4.9 mph 6 mph 42% 0 in 510 W/m2
10:10 60.4 °F 36 °F 30 in East 8.1 mph 10 mph 40% 0 in 524 W/m2
10:15 60.6 °F 36.9 °F 30 in ESE 4 mph 7 mph 41% 0 in 534 W/m2
10:20 61 °F 36.5 °F 30 in East 6 mph 8 mph 40% 0 in 543 W/m2
10:25 61 °F 37 °F 30 in ESE 4 mph 10 mph 41% 0 in 557 W/m2
10:30 61.3 °F 36.9 °F 30 in NNE 2 mph 5 mph 40% 0 in 564 W/m2
10:35 61.5 °F 36.3 °F 30 in East 4.9 mph 9 mph 39% 0 in 578 W/m2
10:40 61.9 °F 36.7 °F 30 in NE 2.9 mph 14 mph 39% 0 in 584 W/m2
10:45 61.7 °F 36.5 °F 30 in ENE 10.1 mph 12 mph 39% 0 in 596 W/m2
10:50 62.1 °F 37.4 °F 30 in East 4 mph 14 mph 40% 0 in 606 W/m2
10:55 62.4 °F 37.2 °F 30 in East 2 mph 7 mph 39% 0 in 615 W/m2
11:00 62.8 °F 36.9 °F 30 in ENE 2.9 mph 11 mph 38% 0 in 622 W/m2
11:05 63.3 °F 36.7 °F 30 in ESE 2.9 mph 8 mph 37% 0 in 633 W/m2
11:10 63.7 °F 36.9 °F 30 in NE 2 mph 11 mph 37% 0 in 643 W/m2
11:15 63.7 °F 37.6 °F 30 in East 2 mph 7 mph 38% 0 in 649 W/m2
11:20 63.9 °F 39 °F 30 in SSW 4.9 mph 9 mph 40% 0 in 657 W/m2
11:25 63.9 °F 37 °F 30 in ENE 4.9 mph 11 mph 37% 0 in 666 W/m2
11:30 63.9 °F 37.8 °F 30 in East 2 mph 8 mph 38% 0 in 675 W/m2
11:35 64 °F 37.2 °F 30 in ESE 2.9 mph 14 mph 37% 0 in 680 W/m2
11:41 64 °F 36.5 °F 30 in ENE 8.1 mph 11 mph 36% 0 in 687 W/m2
11:46 64.4 °F 36.9 °F 30 in SE 8.1 mph 14 mph 36% 0 in 698 W/m2
11:51 64.6 °F 37 °F 30 in SSE 2.9 mph 12 mph 36% 0 in 701 W/m2
11:56 64.8 °F 37.9 °F 30 in NW 0.9 mph 8 mph 37% 0 in 707 W/m2
12:01 65.1 °F 38.8 °F 29.9 in ENE 2 mph 4 mph 38% 0 in 714 W/m2
12:06 65.7 °F 37.2 °F 30 in SSE 6 mph 10 mph 35% 0 in 722 W/m2
12:11 65.7 °F 37.9 °F 30 in ENE 2.9 mph 5 mph 36% 0 in 729 W/m2
12:16 65.7 °F 37.9 °F 29.9 in NNE 2.9 mph 10 mph 36% 0 in 731 W/m2
12:21 66.2 °F 37.8 °F 29.9 in East 2.9 mph 8 mph 35% 0 in 731 W/m2
12:26 66.6 °F 37.4 °F 29.9 in ENE 2.9 mph 13 mph 34% 0 in 740 W/m2
12:31 66.9 °F 37.6 °F 29.9 in East 2 mph 12 mph 34% 0 in 745 W/m2
12:36 67.1 °F 38.5 °F 30 in SE 4 mph 13 mph 35% 0 in 752 W/m2
12:41 67.3 °F 37.9 °F 30 in East 2.9 mph 6 mph 34% 0 in 752 W/m2
12:46 67.1 °F 38.5 °F 30 in ENE 6.9 mph 9 mph 35% 0 in 758 W/m2
12:51 67.3 °F 38.7 °F 29.9 in SSE 2 mph 5 mph 35% 0 in 761 W/m2
12:56 67.5 °F 37.4 °F 29.9 in NNE 2.9 mph 11 mph 33% 0 in 761 W/m2
13:01 67.6 °F 37.6 °F 30 in North 8.1 mph 11 mph 33% 0 in 761 W/m2
13:06 67.6 °F 37.6 °F 30 in East 4 mph 8 mph 33% 0 in 763 W/m2
13:11 67.6 °F 38.3 °F 30 in ESE 4 mph 8 mph 34% 0 in 768 W/m2
13:16 67.8 °F 37.6 °F 30 in NE 2 mph 9 mph 33% 0 in 766 W/m2
13:21 68.2 °F 37.2 °F 30 in NE 4 mph 12 mph 32% 0 in 766 W/m2
13:26 68.2 °F 37.9 °F 30 in NE 4.9 mph 5 mph 33% 0 in 768 W/m2
13:31 68.5 °F 37.6 °F 30 in ENE 6 mph 15 mph 32% 0 in 765 W/m2
13:36 68.4 °F 37.4 °F 30 in ESE 2.9 mph 7 mph 32% 0 in 766 W/m2
13:41 68.7 °F 38.5 °F 30 in East 6.9 mph 15 mph 33% 0 in 765 W/m2
13:46 69.3 °F 38.1 °F 30 in ENE 4 mph 10 mph 32% 0 in 768 W/m2
13:51 69.4 °F 37.4 °F 29.9 in East 4 mph 10 mph 31% 0 in 765 W/m2
13:56 70 °F 37.9 °F 30 in ENE 2 mph 6 mph 31% 0 in 763 W/m2
14:01 70 °F 37.9 °F 30 in NNE 0.9 mph 9 mph 31% 0 in 761 W/m2
14:06 70 °F 37.9 °F 30 in ESE 4 mph 10 mph 31% 0 in 761 W/m2
14:11 70.2 °F 38.1 °F 30 in NE 4.9 mph 8 mph 31% 0 in 752 W/m2
14:16 70.5 °F 37.6 °F 30 in SE 0.9 mph 10 mph 30% 0 in 751 W/m2
14:21 70.7 °F 37.8 °F 30 in NE 2.9 mph 7 mph 30% 0 in 751 W/m2
14:26 71.1 °F 37.2 °F 30 in North 0.9 mph 8 mph 29% 0 in 745 W/m2
14:31 70.9 °F 37 °F 30 in ESE 4 mph 11 mph 29% 0 in 740 W/m2
14:36 70.5 °F 38.5 °F 30 in SE 2.9 mph 5 mph 31% 0 in 737 W/m2
14:41 70.9 °F 40.3 °F 30 in North 6 mph 7 mph 33% 0 in 735 W/m2
14:46 71.1 °F 39.7 °F 30 in NE 2 mph 4 mph 32% 0 in 729 W/m2
14:51 71.2 °F 38.3 °F 29.9 in NE 4 mph 6 mph 30% 0 in 722 W/m2
14:56 71.2 °F 39 °F 30 in East 4 mph 8 mph 31% 0 in 714 W/m2
15:01 70.9 °F 37.9 °F 29.9 in West 6.9 mph 11 mph 30% 0 in 708 W/m2
15:06 70.9 °F 38.7 °F 30 in East 2.9 mph 7 mph 31% 0 in 705 W/m2
15:11 71.2 °F 39 °F 29.9 in NNE 2 mph 8 mph 31% 0 in 698 W/m2
15:16 71.6 °F 38.5 °F 29.9 in ENE 6 mph 8 mph 30% 0 in 691 W/m2
15:21 71.6 °F 39.4 °F 29.9 in NW 2 mph 11 mph 31% 0 in 680 W/m2
15:26 71.4 °F 39.2 °F 29.9 in East 2 mph 12 mph 31% 0 in 671 W/m2
15:31 71.1 °F 38.1 °F 29.9 in SE 2 mph 8 mph 30% 0 in 670 W/m2
15:37 71.4 °F 37.6 °F 29.9 in East 4 mph 11 mph 29% 0 in 661 W/m2
15:42 72 °F 38.8 °F 29.9 in South 0.9 mph 3 mph 30% 0 in 656 W/m2
15:47 72.3 °F 37.4 °F 29.9 in ESE 8.9 mph 9 mph 28% 0 in 647 W/m2
15:52 72.3 °F 37.4 °F 29.9 in NE 2.9 mph 15 mph 28% 0 in 638 W/m2
15:57 72.3 °F 37.4 °F 29.9 in East 6 mph 11 mph 28% 0 in 629 W/m2
16:02 72.3 °F 37.4 °F 29.9 in ENE 0.9 mph 5 mph 28% 0 in 621 W/m2
16:07 72.7 °F 37.8 °F 29.9 in East 2 mph 12 mph 28% 0 in 610 W/m2
16:13 72.9 °F 37.8 °F 29.9 in West 0.9 mph 6 mph 28% 0 in 603 W/m2
16:18 73 °F 37 °F 29.9 in NE 6 mph 14 mph 27% 0 in 591 W/m2
16:23 72.9 °F 36.9 °F 29.9 in NE 4 mph 6 mph 27% 0 in 584 W/m2
16:28 72.9 °F 36.9 °F 29.9 in ENE 4 mph 14 mph 27% 0 in 573 W/m2
16:33 73 °F 37 °F 29.9 in North 4 mph 5 mph 27% 0 in 566 W/m2
16:38 73.2 °F 37.2 °F 29.9 in ENE 4.9 mph 11 mph 27% 0 in 557 W/m2
16:43 73 °F 37 °F 29.9 in NNE 10.1 mph 10 mph 27% 0 in 547 W/m2
16:48 73 °F 37 °F 29.9 in ESE 2 mph 11 mph 27% 0 in 536 W/m2
16:53 73.6 °F 37.6 °F 29.9 in ENE 8.1 mph 9 mph 27% 0 in 527 W/m2
16:58 73.6 °F 37.6 °F 29.9 in ESE 8.1 mph 9 mph 27% 0 in 512 W/m2
17:03 73.2 °F 37.2 °F 29.9 in East 2 mph 8 mph 27% 0 in 494 W/m2
17:08 73.2 °F 37.2 °F 29.9 in SE 4 mph 12 mph 27% 0 in 489 W/m2
17:13 73.2 °F 37.2 °F 29.9 in East 2.9 mph 6 mph 27% 0 in 473 W/m2
17:18 73.4 °F 37.4 °F 29.9 in East 2.9 mph 5 mph 27% 0 in 462 W/m2
17:24 73.6 °F 37.6 °F 29.9 in Calm   8 mph 27% 0 in 448 W/m2
17:29 73.6 °F 39.4 °F 29.9 in ESE 2.9 mph 6 mph 29% 0 in 436 W/m2
17:34 73.6 °F 37.6 °F 29.9 in ESE 2.9 mph 7 mph 27% 0 in 424 W/m2
17:39 73.4 °F 36.5 °F 29.9 in East 2 mph 5 mph 26% 0 in 410 W/m2
17:44 73 °F 36.1 °F 29.9 in ESE 2.9 mph 12 mph 26% 0 in 399 W/m2
17:49 72.9 °F 36.9 °F 29.9 in ENE 10.1 mph 11 mph 27% 0 in 383 W/m2
17:54 72.7 °F 36.9 °F 29.9 in ENE 6 mph 14 mph 27% 0 in 371 W/m2
17:59 72.7 °F 36.9 °F 29.9 in ESE 4 mph 8 mph 27% 0 in 359 W/m2
18:04 72.5 °F 36.7 °F 29.9 in SW 0.9 mph 11 mph 27% 0 in 348 W/m2
18:09 73 °F 36.1 °F 29.9 in SE 4 mph 11 mph 26% 0 in 336 W/m2
18:14 73 °F 37 °F 29.9 in ENE 2.9 mph 9 mph 27% 0 in 320 W/m2
18:19 72.7 °F 37.8 °F 29.9 in ESE 4 mph 11 mph 28% 0 in 306 W/m2
18:24 72.7 °F 36.9 °F 29.9 in NE 4.9 mph 8 mph 27% 0 in 292 W/m2
18:29 72.3 °F 36.5 °F 29.9 in NNE 2.9 mph 7 mph 27% 0 in 279 W/m2
18:34 72.3 °F 36.5 °F 29.9 in East 4 mph 8 mph 27% 0 in 265 W/m2
18:39 72.3 °F 35.6 °F 29.9 in East 8.1 mph 8 mph 26% 0 in 250 W/m2
18:44 72.3 °F 37.4 °F 29.9 in ENE 2 mph 5 mph 28% 0 in 236 W/m2
18:49 72.1 °F 36.3 °F 29.9 in ESE 8.1 mph 11 mph 27% 0 in 223 W/m2
18:54 72 °F 37 °F 29.9 in SE 0.9 mph 7 mph 28% 0 in 209 W/m2
18:59 72 °F 36.1 °F 29.9 in ESE 4.9 mph 9 mph 27% 0 in 195 W/m2
19:04 72.1 °F 37.2 °F 29.9 in ESE 2 mph 4 mph 28% 0 in 178 W/m2
19:09 72.1 °F 38.1 °F 29.9 in ESE 2.9 mph 3 mph 29% 0 in 162 W/m2
19:14 71.8 °F 37.8 °F 30 in SE 2 mph 4 mph 29% 0 in 146 W/m2
19:19 71.4 °F 36.7 °F 30 in East 0.9 mph 9 mph 28% 0 in 132 W/m2
19:24 71.2 °F 37.4 °F 30 in ENE 4.9 mph 7 mph 29% 0 in 120 W/m2
19:29 70.9 °F 37 °F 30 in ESE 6.9 mph 7 mph 29% 0 in 102 W/m2
19:34 70.5 °F 36.7 °F 30 in ESE 2 mph 5 mph 29% 0 in 90 W/m2
19:40 70.3 °F 36.5 °F 30 in SE 0.9 mph 4 mph 29% 0 in 76 W/m2
19:45 70.2 °F 36.5 °F 30 in ENE 2.9 mph 6 mph 29% 0 in 65 W/m2
19:50 70.2 °F 37.2 °F 30 in East 2 mph 4 mph 30% 0 in 54 W/m2
19:55 70 °F 36.3 °F 30 in ENE 2 mph 5 mph 29% 0 in 46 W/m2
20:00 69.6 °F 36 °F 30 in ESE 2 mph 6 mph 29% 0 in 25 W/m2
20:05 69.3 °F 36.5 °F 30 in ESE 8.1 mph 8 mph 30% 0 in 21 W/m2
20:10 69.1 °F 36.3 °F 30 in Calm   3 mph 30% 0 in 19 W/m2
20:15 68.5 °F 36.7 °F 30 in East 2 mph 3 mph 31% 0 in 16 W/m2
20:20 67.8 °F 36.9 °F 30 in ENE 2 mph 2 mph 32% 0 in 14 W/m2
20:25 67.3 °F 37.2 °F 30 in ESE 2 mph 3 mph 33% 0 in 12 W/m2
20:30 66.7 °F 39 °F 30 in Calm   3 mph 36% 0 in 9 W/m2
20:35 66.2 °F 37 °F 30 in NNE 0.9 mph 3 mph 34% 0 in 7 W/m2
20:40 66 °F 36.9 °F 30 in ENE 2 mph 3 mph 34% 0 in 5 W/m2
20:45 65.7 °F 37.2 °F 30 in ENE 0.9 mph 2 mph 35% 0 in 0 W/m2
20:50 65.5 °F 37 °F 30 in Calm   4 mph 35% 0 in 0 W/m2
20:55 65.1 °F 38.1 °F 30 in Calm   1 mph 37% 0 in 0 W/m2
21:00 64.8 °F 37.9 °F 30 in East 0.9 mph 2 mph 37% 0 in 0 W/m2
21:05 64 °F 37.9 °F 30 in Calm   1 mph 38% 0 in 0 W/m2
21:10 63.7 °F 37.6 °F 30 in SE 0.9 mph 2 mph 38% 0 in 0 W/m2
21:15 63.1 °F 38.5 °F 30 in SE 0.9 mph 2 mph 40% 0 in 0 W/m2
21:20 62.4 °F 37.8 °F 30 in SE 2 mph 2 mph 40% 0 in 0 W/m2
21:25 62.1 °F 38.1 °F 30 in SE 0.9 mph 2 mph 41% 0 in 0 W/m2
21:30 61.3 °F 38.7 °F 30 in Calm   2 mph 43% 0 in 0 W/m2
21:36 60.6 °F 38.7 °F 30 in SW 0.9 mph 2 mph 44% 0 in 0 W/m2
21:41 60.3 °F 38.8 °F 30 in SW 0.9 mph 2 mph 45% 0 in 0 W/m2
21:46 59.7 °F 38.8 °F 30 in Calm   1 mph 46% 0 in 0 W/m2
21:51 59.2 °F 38.5 °F 30 in Calm   1 mph 46% 0 in 0 W/m2
21:56 58.8 °F 39.2 °F 30 in SW 0.9 mph 2 mph 48% 0 in 0 W/m2
22:01 58.5 °F 38.8 °F 30 in SW 0.9 mph 2 mph 48% 0 in 0 W/m2
22:06 57.9 °F 38.8 °F 30 in Calm   2 mph 49% 0 in 0 W/m2
22:11 57.7 °F 38.7 °F 30 in Calm     49% 0 in 0 W/m2
22:16 57.6 °F 39 °F 30 in SW 0.9 mph 2 mph 50% 0 in 0 W/m2
22:21 57.4 °F 38.8 °F 30 in Calm   1 mph 50% 0 in 0 W/m2
22:26 57 °F 39 °F 30 in SW 0.9 mph 2 mph 51% 0 in 0 W/m2
22:31 56.8 °F 38.8 °F 30 in Calm     51% 0 in 0 W/m2
22:36 56.5 °F 38.7 °F 30 in Calm   2 mph 51% 0 in 0 W/m2
22:41 56.1 °F 38.7 °F 30 in SSW 2 mph 2 mph 52% 0 in 0 W/m2
22:46 56.1 °F 38.7 °F 30 in SSW 0.9 mph 1 mph 52% 0 in 0 W/m2
22:51 56.1 °F 38.7 °F 30 in SSW 0.9 mph 2 mph 52% 0 in 0 W/m2
22:56 55.9 °F 38.5 °F 30 in SSW 0.9 mph 1 mph 52% 0 in 0 W/m2
23:01 55.9 °F 38.5 °F 30 in Calm     52% 0 in 0 W/m2
23:06 55.8 °F 38.8 °F 30 in Calm     53% 0 in 0 W/m2
23:11 55.4 °F 38.5 °F 30 in Calm     53% 0 in 0 W/m2
23:16 55 °F 38.3 °F 30 in Calm   1 mph 53% 0 in 0 W/m2
23:21 55 °F 38.3 °F 30 in Calm   3 mph 53% 0 in 0 W/m2
23:26 54.9 °F 38.5 °F 30 in SSW 0.9 mph 4 mph 54% 0 in 0 W/m2
23:31 54.9 °F 38.5 °F 30 in SSW 0.9 mph 2 mph 54% 0 in 0 W/m2
23:36 54.9 °F 38.5 °F 30 in SSW 0.9 mph 4 mph 54% 0 in 0 W/m2
23:41 54.7 °F 38.3 °F 30 in SSW 0.9 mph 2 mph 54% 0 in 0 W/m2
23:46 54.7 °F 37.4 °F 30 in Calm   1 mph 52% 0 in 0 W/m2
23:51 54.7 °F 37.9 °F 30 in WNW 0.9 mph 2 mph 53% 0 in 0 W/m2
23:56 54.7 °F 37.4 °F 30 in WNW 0.9 mph 2 mph 52% 0 in 0 W/m2
Juneau County Weather
Compliments of Weather Underground - 4 mb